createdAt,value
2019-03-22T00:05:23.262Z,9.80
2019-03-22T00:10:04.863Z,9.90
2019-03-22T00:14:40.754Z,9.90
2019-03-22T00:19:13.175Z,9.40
2019-03-22T00:23:48.831Z,9.80
2019-03-22T00:28:21.982Z,11.50
2019-03-22T00:32:54.646Z,9.80
2019-03-22T00:42:02.190Z,9.80
2019-03-22T00:46:34.011Z,9.70
2019-03-22T00:55:43.592Z,9.80
2019-03-22T01:00:20.003Z,9.80
2019-03-22T01:04:53.075Z,9.70
2019-03-22T01:13:59.208Z,9.70
2019-03-22T01:18:32.395Z,9.50
2019-03-22T01:23:04.589Z,9.40
2019-03-22T01:27:40.846Z,9.20
2019-03-22T01:32:14.192Z,9.50
2019-03-22T01:36:48.978Z,9.30
2019-03-22T01:41:21.902Z,9.40
2019-03-22T01:45:55.897Z,9.40
2019-03-22T01:50:29.168Z,9.30
2019-03-22T01:55:03.482Z,9.10
2019-03-22T01:59:36.940Z,9.20
2019-03-22T02:04:12.217Z,9.10
2019-03-22T02:08:46.337Z,9.30
2019-03-22T02:13:23.414Z,8.90
2019-03-22T02:18:05.280Z,9.20
2019-03-22T02:22:39.400Z,9.10
2019-03-22T02:27:12.995Z,9.30
2019-03-22T02:31:45.429Z,9.30
2019-03-22T02:36:20.577Z,9.50
2019-03-22T02:40:53.722Z,9.40
2019-03-22T02:45:25.166Z,9.40
2019-03-22T02:49:58.908Z,9.40
2019-03-22T02:54:33.469Z,9.30
2019-03-22T02:59:04.205Z,9.30
2019-03-22T03:03:37.156Z,9.20
2019-03-22T03:08:12.491Z,9.20
2019-03-22T03:12:43.935Z,9.10
2019-03-22T03:17:16.872Z,9.20
2019-03-22T03:21:51.875Z,9.20
2019-03-22T03:26:44.308Z,9.20
2019-03-22T03:31:16.597Z,9.20
2019-03-22T03:35:52.502Z,9.20
2019-03-22T03:40:26.624Z,9.00
2019-03-22T03:45:06.452Z,8.70
2019-03-22T03:49:44.759Z,9.20
2019-03-22T03:54:20.782Z,8.90
2019-03-22T03:58:54.165Z,8.80
2019-03-22T04:03:24.922Z,9.50
2019-03-22T04:08:01.690Z,8.80
2019-03-22T04:12:53.333Z,8.90
2019-03-22T04:17:23.735Z,8.50
2019-03-22T04:22:16.241Z,8.40
2019-03-22T04:26:52.301Z,8.80
2019-03-22T04:31:24.409Z,8.30
2019-03-22T04:35:59.880Z,8.90
2019-03-22T04:40:42.752Z,8.80
2019-03-22T04:45:19.270Z,8.80
2019-03-22T04:49:54.237Z,8.80
2019-03-22T04:54:33.035Z,8.60
2019-03-22T04:59:18.873Z,8.90
2019-03-22T05:03:45.118Z,9.00
2019-03-22T05:08:20.124Z,8.80
2019-03-22T05:12:54.179Z,8.70
2019-03-22T05:17:29.286Z,9.30
2019-03-22T05:22:03.526Z,8.70
2019-03-22T05:26:40.216Z,8.80
2019-03-22T05:31:39.824Z,8.80
2019-03-22T05:36:12.216Z,8.80
2019-03-22T05:40:44.496Z,8.30
2019-03-22T05:45:22.098Z,8.80
2019-03-22T05:49:54.440Z,9.50
2019-03-22T05:54:28.602Z,8.60
2019-03-22T05:59:03.679Z,8.90
2019-03-22T06:03:41.473Z,9.00
2019-03-22T06:08:15.326Z,9.10
2019-03-22T06:12:51.134Z,9.10
2019-03-22T06:17:22.825Z,9.30
2019-03-22T06:21:59.758Z,9.20
2019-03-22T06:26:32.998Z,9.20
2019-03-22T06:31:11.252Z,9.30
2019-03-22T06:35:45.025Z,8.80
2019-03-22T06:40:21.759Z,9.50
2019-03-22T06:45:15.563Z,9.40
2019-03-22T06:49:48.542Z,9.40
2019-03-22T06:54:31.496Z,9.30
2019-03-22T07:03:44.543Z,9.60
2019-03-22T07:08:18.852Z,9.80
2019-03-22T07:12:52.556Z,11.10
2019-03-22T07:17:27.576Z,9.90
2019-03-22T07:22:00.161Z,10.10
2019-03-22T07:26:33.533Z,10.20
2019-03-22T07:31:04.644Z,10.20
2019-03-22T07:35:41.935Z,10.40
2019-03-22T07:40:34.466Z,10.70
2019-03-22T07:45:11.159Z,10.80
2019-03-22T07:49:42.931Z,10.90
2019-03-22T07:54:20.262Z,11.00
2019-03-22T07:58:53.829Z,10.60
2019-03-22T08:03:24.714Z,11.00
2019-03-22T08:07:56.865Z,10.90
2019-03-22T08:12:32.531Z,10.60
2019-03-22T08:17:26.576Z,10.80
2019-03-22T08:22:00.884Z,10.60
2019-03-22T08:26:35.911Z,10.70
2019-03-22T08:31:08.457Z,10.90
2019-03-22T08:35:40.904Z,10.80
2019-03-22T08:40:17.816Z,11.40
2019-03-22T08:44:49.080Z,11.80
2019-03-22T08:49:25.401Z,11.80
2019-03-22T08:54:00.669Z,12.30
2019-03-22T08:58:33.943Z,14.30
2019-03-22T09:03:07.507Z,12.30
2019-03-22T09:07:42.161Z,12.30
2019-03-22T09:12:17.457Z,12.40
2019-03-22T09:16:50.018Z,12.40
2019-03-22T09:21:25.670Z,12.40
2019-03-22T09:25:59.046Z,12.30
2019-03-22T09:35:39.516Z,12.50
2019-03-22T09:40:13.345Z,12.70
2019-03-22T09:44:45.907Z,13.30
2019-03-22T09:49:18.360Z,14.10
2019-03-22T09:54:09.811Z,14.20
2019-03-22T09:58:42.953Z,13.00
2019-03-22T10:03:19.185Z,12.70
2019-03-22T10:07:54.051Z,13.40
2019-03-22T10:12:27.472Z,13.70
2019-03-22T10:17:04.174Z,13.60
2019-03-22T10:21:37.567Z,14.10
2019-03-22T10:30:42.570Z,15.40
2019-03-22T10:35:25.336Z,15.30
2019-03-22T10:44:23.894Z,14.20
2019-03-22T10:49:00.883Z,17.90
2019-03-22T10:53:34.040Z,14.00
2019-03-22T10:58:04.590Z,14.10
2019-03-22T11:02:41.667Z,14.60
2019-03-22T11:07:14.459Z,14.40
2019-03-22T11:11:45.764Z,14.10
2019-03-22T11:16:21.346Z,13.80
2019-03-22T11:20:53.967Z,13.70
2019-03-22T11:25:27.758Z,13.70
2019-03-22T11:30:01.578Z,13.80
2019-03-22T11:34:34.304Z,14.00
2019-03-22T11:39:15.182Z,13.90
2019-03-22T11:43:46.811Z,13.60
2019-03-22T11:48:41.194Z,13.50
2019-03-22T11:53:16.666Z,13.80
2019-03-22T11:57:48.443Z,14.00
2019-03-22T12:02:22.534Z,13.90
2019-03-22T12:06:57.279Z,13.80
2019-03-22T12:11:29.289Z,14.00
2019-03-22T12:16:03.103Z,14.60
2019-03-22T12:20:37.400Z,14.80
2019-03-22T12:25:09.353Z,14.40
2019-03-22T12:29:42.947Z,14.00
2019-03-22T12:34:19.254Z,10.20
2019-03-22T12:38:50.253Z,14.40
2019-03-22T12:43:25.396Z,15.10
2019-03-22T12:47:59.567Z,15.70
2019-03-22T12:52:31.325Z,15.70
2019-03-22T12:57:06.419Z,14.80
2019-03-22T13:01:40.170Z,15.20
2019-03-22T13:06:13.710Z,15.30
2019-03-22T13:10:47.773Z,15.60
2019-03-22T13:15:21.968Z,15.60
2019-03-22T13:19:58.961Z,15.40
2019-03-22T13:24:29.726Z,14.90
2019-03-22T13:29:02.662Z,14.40
2019-03-22T13:33:36.913Z,14.50
2019-03-22T13:38:09.835Z,14.70
2019-03-22T13:42:44.940Z,15.10
2019-03-22T13:47:21.304Z,14.70
2019-03-22T13:51:56.182Z,14.10
2019-03-22T13:56:26.831Z,14.10
2019-03-22T14:01:19.190Z,14.30
2019-03-22T14:05:57.469Z,14.00
2019-03-22T14:10:31.903Z,14.20
2019-03-22T14:15:05.415Z,14.50
2019-03-22T14:19:39.613Z,14.50
2019-03-22T14:24:14.398Z,14.40
2019-03-22T14:28:48.250Z,14.30
2019-03-22T14:33:25.146Z,14.30
2019-03-22T14:37:58.970Z,14.30
2019-03-22T14:43:09.289Z,14.40
2019-03-22T14:47:42.248Z,14.20
2019-03-22T14:56:47.885Z,13.50
2019-03-22T15:01:25.900Z,14.10
2019-03-22T15:06:06.397Z,14.00
2019-03-22T15:10:40.465Z,13.90
2019-03-22T15:15:22.546Z,13.50
2019-03-22T15:20:02.530Z,13.70
2019-03-22T15:24:41.972Z,13.80
2019-03-22T15:29:36.236Z,13.70
2019-03-22T15:34:22.081Z,13.40
2019-03-22T15:39:13.161Z,13.50
2019-03-22T15:43:45.942Z,13.50
2019-03-22T15:48:18.336Z,13.30
2019-03-22T15:52:50.755Z,13.30
2019-03-22T15:57:25.372Z,13.00
2019-03-22T16:01:59.729Z,12.80
2019-03-22T16:06:30.484Z,12.40
2019-03-22T16:11:10.480Z,12.50
2019-03-22T16:15:45.022Z,12.70
2019-03-22T16:20:19.440Z,12.70
2019-03-22T16:24:54.475Z,12.40
2019-03-22T16:29:29.362Z,12.40
2019-03-22T16:34:05.944Z,12.20
2019-03-22T16:38:38.593Z,12.20
2019-03-22T16:43:22.304Z,12.20
2019-03-22T16:47:57.560Z,12.20
2019-03-22T16:52:29.673Z,12.10
2019-03-22T16:57:04.803Z,12.00
2019-03-22T17:01:38.014Z,11.70
2019-03-22T17:06:09.551Z,11.70
2019-03-22T17:10:50.422Z,11.70
2019-03-22T17:15:25.134Z,11.30
2019-03-22T17:19:59.208Z,11.30
2019-03-22T17:24:30.229Z,11.00
2019-03-22T17:29:05.666Z,10.90
2019-03-22T17:33:38.855Z,10.90
2019-03-22T17:38:09.349Z,10.50
2019-03-22T17:42:44.673Z,10.70
2019-03-22T17:47:14.871Z,10.70
2019-03-22T17:51:46.692Z,10.90
2019-03-22T17:56:23.131Z,10.70
2019-03-22T18:00:55.462Z,10.60
2019-03-22T18:05:30.613Z,10.40
2019-03-22T18:10:04.088Z,10.20
2019-03-22T18:14:34.600Z,10.00
2019-03-22T18:19:09.775Z,10.10
2019-03-22T18:24:04.306Z,9.90
2019-03-22T18:28:39.245Z,9.90
2019-03-22T18:33:14.369Z,9.90
2019-03-22T18:37:50.051Z,9.90
2019-03-22T18:42:25.070Z,10.00
2019-03-22T18:46:58.973Z,10.00
2019-03-22T18:51:32.396Z,10.00
2019-03-22T18:56:15.701Z,10.30
2019-03-22T19:00:50.424Z,10.10
2019-03-22T19:05:23.198Z,10.10
2019-03-22T19:10:16.179Z,9.70
2019-03-22T19:14:49.935Z,9.60
2019-03-22T19:19:22.912Z,9.50
2019-03-22T19:23:55.193Z,9.60
2019-03-22T19:28:31.766Z,9.60
2019-03-22T19:33:04.035Z,9.60
2019-03-22T19:37:34.558Z,9.50
2019-03-22T19:42:12.560Z,9.50
2019-03-22T19:46:53.697Z,9.40
2019-03-22T19:51:22.887Z,9.40
2019-03-22T19:55:55.251Z,9.30
2019-03-22T20:00:32.964Z,9.10
2019-03-22T20:05:05.135Z,9.20
2019-03-22T20:09:39.584Z,9.30
2019-03-22T20:14:12.149Z,9.20
2019-03-22T20:19:06.438Z,9.10
2019-03-22T20:23:39.482Z,9.10
2019-03-22T20:28:11.987Z,8.90
2019-03-22T20:33:04.224Z,8.70
2019-03-22T20:37:35.851Z,9.40
2019-03-22T20:42:10.352Z,9.40
2019-03-22T20:46:48.233Z,9.30
2019-03-22T20:51:20.417Z,9.20
2019-03-22T20:56:19.971Z,9.00
2019-03-22T21:00:55.998Z,9.10
2019-03-22T21:05:30.856Z,9.10
2019-03-22T21:10:09.043Z,9.10
2019-03-22T21:14:40.387Z,8.90
2019-03-22T21:19:12.545Z,8.90
2019-03-22T21:23:48.243Z,8.70
2019-03-22T21:28:28.048Z,8.90
2019-03-22T21:32:59.982Z,8.70
2019-03-22T21:37:39.140Z,8.50
2019-03-22T21:42:15.400Z,8.10
2019-03-22T21:46:50.402Z,7.90
2019-03-22T21:51:24.802Z,8.40
2019-03-22T21:55:58.215Z,8.10
2019-03-22T22:00:39.746Z,8.10
2019-03-22T22:05:29.497Z,8.80
2019-03-22T22:10:00.390Z,7.90
2019-03-22T22:14:41.053Z,6.20
2019-03-22T22:19:15.289Z,8.00
2019-03-22T22:23:48.957Z,7.60
2019-03-22T22:32:59.996Z,7.70
2019-03-22T22:37:37.668Z,7.40
2019-03-22T22:42:16.657Z,7.40
2019-03-22T22:46:56.548Z,7.00
2019-03-22T22:51:30.590Z,6.70
2019-03-22T22:56:07.369Z,7.30
2019-03-22T23:00:41.465Z,7.00
2019-03-22T23:05:16.618Z,6.90
2019-03-22T23:09:50.067Z,6.50
2019-03-22T23:14:32.652Z,6.90
2019-03-22T23:19:12.895Z,6.70
2019-03-22T23:23:47.584Z,6.50
2019-03-22T23:28:24.716Z,6.50
2019-03-22T23:32:59.351Z,6.50
2019-03-22T23:37:33.041Z,6.40
2019-03-22T23:42:08.922Z,6.40
2019-03-22T23:46:40.802Z,6.30
2019-03-22T23:51:15.366Z,6.40
2019-03-22T23:55:48.270Z,6.60
